Time;durP1;ratioP1;P1;durP2;ratioP2;P2;SDS_P1;SDS_P2;PMS_P1;PMS_P2;Temp;Humidity;BMP_temperature;BMP_pressure;BME280_temperature;BME280_humidity;BME280_pressure;Samples;Min_cycle;Max_cycle;Signal;HPM_P1;HPM_P2
2021/09/17 00:01:20;;;;;;;5.47;2.77;;;13.70;99.90;;;;;;5036255;28;20601;-83
2021/09/17 00:03:47;;;;;;;4.47;2.67;;;13.70;99.90;;;;;;5035949;28;20204;-83
2021/09/17 00:06:14;;;;;;;5.07;2.60;;;13.70;99.90;;;;;;5036106;28;20227;-83
2021/09/17 00:08:41;;;;;;;2.60;2.40;;;13.80;99.90;;;;;;5032271;28;20294;-83
2021/09/17 00:11:08;;;;;;;3.30;2.40;;;13.70;99.90;;;;;;5031535;28;20283;-83
2021/09/17 00:13:38;;;;;;;3.50;2.70;;;13.80;99.90;;;;;;5034546;28;20200;-83
2021/09/17 00:16:05;;;;;;;5.43;2.80;;;13.90;99.90;;;;;;5013960;28;20212;-83
2021/09/17 00:18:32;;;;;;;6.57;3.33;;;13.80;99.90;;;;;;5033780;28;20223;-83
2021/09/17 00:20:59;;;;;;;4.17;2.90;;;13.70;99.90;;;;;;5034104;28;20196;-83
2021/09/17 00:23:26;;;;;;;3.77;2.77;;;13.80;99.90;;;;;;5034862;28;20199;-83
2021/09/17 00:25:53;;;;;;;2.90;2.60;;;13.80;99.90;;;;;;5034586;28;20220;-83
2021/09/17 00:28:20;;;;;;;6.20;2.93;;;13.80;99.90;;;;;;5035951;28;20652;-83
2021/09/17 00:30:48;;;;;;;4.43;2.63;;;13.80;99.90;;;;;;5034438;28;20266;-83
2021/09/17 00:33:15;;;;;;;6.50;2.90;;;13.80;99.90;;;;;;5034903;28;20687;-83
2021/09/17 00:35:42;;;;;;;4.83;3.03;;;13.80;99.90;;;;;;5035914;28;20774;-83
2021/09/17 00:38:09;;;;;;;5.70;3.30;;;13.80;99.90;;;;;;5035245;28;20285;-83
2021/09/17 00:40:36;;;;;;;3.67;2.70;;;13.90;99.90;;;;;;5034766;28;20200;-83
2021/09/17 00:43:03;;;;;;;4.67;2.97;;;13.80;99.90;;;;;;5034831;28;20195;-83
2021/09/17 00:45:30;;;;;;;3.87;2.93;;;13.80;99.90;;;;;;5033566;28;20285;-83
2021/09/17 00:47:58;;;;;;;5.00;3.40;;;13.80;99.90;;;;;;5035714;28;20216;-83
2021/09/17 00:50:25;;;;;;;4.23;2.63;;;13.80;99.90;;;;;;5034787;28;20246;-83
2021/09/17 00:52:52;;;;;;;6.93;3.47;;;13.80;99.90;;;;;;5035643;28;20668;-83
2021/09/17 00:55:20;;;;;;;7.63;3.10;;;13.70;99.90;;;;;;5035099;28;20207;-83
2021/09/17 00:57:47;;;;;;;7.23;3.47;;;13.70;99.90;;;;;;5035436;28;20291;-83
2021/09/17 01:00:15;;;;;;;5.37;3.30;;;13.70;99.90;;;;;;5034690;28;20219;-83
2021/09/17 01:02:42;;;;;;;5.07;3.20;;;13.70;99.90;;;;;;5035170;28;20231;-83
2021/09/17 01:05:12;;;;;;;6.80;3.50;;;13.70;99.90;;;;;;5034151;28;20664;-83
2021/09/17 01:07:40;;;;;;;5.63;4.17;;;13.60;99.90;;;;;;5034482;28;20265;-83
2021/09/17 01:10:08;;;;;;;5.07;3.63;;;13.60;99.90;;;;;;5032708;28;20196;-83
2021/09/17 01:12:35;;;;;;;4.90;3.60;;;13.60;99.90;;;;;;5034850;28;20268;-83
2021/09/17 01:15:03;;;;;;;4.53;4.07;;;13.60;99.90;;;;;;5034188;28;20253;-83
2021/09/17 01:17:32;;;;;;;6.73;4.00;;;13.60;99.90;;;;;;5034747;28;20306;-83
2021/09/17 01:19:59;;;;;;;7.43;4.73;;;13.60;99.90;;;;;;5033602;28;20287;-83
2021/09/17 01:22:27;;;;;;;7.10;4.40;;;13.60;99.90;;;;;;5035029;28;20204;-83
2021/09/17 01:24:54;;;;;;;5.87;4.17;;;13.70;99.90;;;;;;5034131;28;20287;-83
2021/09/17 01:27:23;;;;;;;7.27;4.80;;;13.70;99.90;;;;;;5033745;28;20221;-83
2021/09/17 01:29:50;;;;;;;7.47;4.57;;;13.60;99.90;;;;;;5034240;28;20219;-83
2021/09/17 01:32:17;;;;;;;6.80;5.10;;;13.60;99.90;;;;;;5032798;28;20302;-83
2021/09/17 01:34:44;;;;;;;8.37;5.13;;;13.60;99.90;;;;;;5034379;28;20265;-82
2021/09/17 01:37:11;;;;;;;7.70;4.80;;;13.60;99.90;;;;;;5033635;28;20226;-83
2021/09/17 01:39:39;;;;;;;8.13;5.57;;;13.70;99.90;;;;;;5034387;28;20635;-83
2021/09/17 01:42:06;;;;;;;8.90;5.50;;;13.80;99.90;;;;;;5028219;28;20280;-83
2021/09/17 01:44:36;;;;;;;8.53;5.07;;;13.80;99.90;;;;;;5025417;28;20289;-83
2021/09/17 01:47:04;;;;;;;6.70;4.73;;;13.90;99.90;;;;;;5027886;28;20243;-83
2021/09/17 01:49:31;;;;;;;8.80;5.10;;;13.90;99.90;;;;;;5039929;28;20807;-83
2021/09/17 01:51:58;;;;;;;8.37;5.00;;;13.90;99.90;;;;;;5039954;28;20223;-82
2021/09/17 01:54:25;;;;;;;5.97;4.73;;;14.00;99.90;;;;;;5028457;28;20329;-83
2021/09/17 01:56:53;;;;;;;6.60;5.10;;;14.00;99.90;;;;;;5028723;28;20749;-83
2021/09/17 01:59:21;;;;;;;9.60;5.13;;;14.10;99.90;;;;;;5022087;28;20200;-83
2021/09/17 02:01:48;;;;;;;7.57;4.80;;;14.10;99.90;;;;;;5027675;28;20291;-83
2021/09/17 02:04:16;;;;;;;8.27;4.77;;;14.20;99.90;;;;;;5030907;28;20203;-83
2021/09/17 02:06:43;;;;;;;6.27;4.90;;;14.20;99.90;;;;;;5041657;28;20226;-83
2021/09/17 02:09:10;;;;;;;6.20;4.70;;;14.20;99.90;;;;;;5038503;28;20741;-83
2021/09/17 02:11:36;;;;;;;10.43;5.40;;;14.20;99.90;;;;;;5036047;28;20322;-83
2021/09/17 02:14:05;;;;;;;6.47;4.80;;;14.20;99.90;;;;;;5032155;28;20637;-83
2021/09/17 02:16:32;;;;;;;6.73;4.67;;;14.20;99.90;;;;;;5027662;28;20306;-83
2021/09/17 02:18:59;;;;;;;8.27;4.70;;;14.20;99.90;;;;;;5029035;28;20246;-83
2021/09/17 02:21:26;;;;;;;6.20;4.83;;;14.20;99.90;;;;;;5029325;28;20334;-83
2021/09/17 02:23:52;;;;;;;6.73;4.60;;;14.20;99.90;;;;;;5040389;28;20289;-83
2021/09/17 02:26:21;;;;;;;7.67;4.80;;;14.30;99.90;;;;;;5034440;28;20215;-83
2021/09/17 02:28:48;;;;;;;9.30;4.33;;;14.30;99.90;;;;;;5027350;28;20283;-83
2021/09/17 02:31:17;;;;;;;5.87;4.40;;;14.40;99.90;;;;;;5030302;28;20735;-83
2021/09/17 02:33:44;;;;;;;5.20;4.00;;;14.40;99.90;;;;;;5031440;28;20222;-83
2021/09/17 02:36:11;;;;;;;6.30;4.57;;;14.50;99.90;;;;;;5030019;28;20839;-83
2021/09/17 02:38:38;;;;;;;5.90;4.20;;;14.70;99.90;;;;;;5029999;28;20203;-83
2021/09/17 02:41:05;;;;;;;7.30;4.63;;;14.70;99.90;;;;;;5030552;28;20235;-83
2021/09/17 02:43:32;;;;;;;9.07;4.40;;;14.70;99.90;;;;;;5029913;28;20243;-83
2021/09/17 02:45:59;;;;;;;8.37;4.60;;;14.80;99.90;;;;;;5036472;28;20305;-83
2021/09/17 02:48:28;;;;;;;6.10;4.27;;;14.80;99.90;;;;;;5033943;28;20206;-83
2021/09/17 02:50:55;;;;;;;6.83;5.00;;;14.90;99.90;;;;;;5036311;28;20290;-83
2021/09/17 02:53:22;;;;;;;6.77;4.70;;;14.90;99.90;;;;;;5030225;28;20310;-83
2021/09/17 02:55:49;;;;;;;8.00;4.43;;;14.90;99.90;;;;;;5030885;28;20302;-83
2021/09/17 02:58:16;;;;;;;8.07;4.27;;;15.00;99.90;;;;;;5029744;28;20231;-83
2021/09/17 03:00:43;;;;;;;7.93;4.17;;;15.00;99.90;;;;;;5030741;28;20238;-83
2021/09/17 03:03:10;;;;;;;7.37;4.17;;;15.00;99.90;;;;;;5031131;28;20238;-84
2021/09/17 03:05:38;;;;;;;5.60;4.30;;;14.90;99.90;;;;;;5030432;28;20559;-83
2021/09/17 03:08:05;;;;;;;5.00;4.13;;;15.00;99.90;;;;;;5030607;28;20615;-83
2021/09/17 03:10:32;;;;;;;9.60;4.80;;;15.00;99.90;;;;;;5031016;28;20298;-83
2021/09/17 03:12:59;;;;;;;14.77;9.13;;;15.00;99.90;;;;;;5031477;28;20684;-83
2021/09/17 03:15:26;;;;;;;7.53;4.50;;;15.00;99.90;;;;;;5032515;28;20204;-83
2021/09/17 03:17:53;;;;;;;7.07;4.40;;;15.00;99.90;;;;;;5021287;28;20290;-83
2021/09/17 03:20:20;;;;;;;5.28;3.70;;;15.00;99.90;;;;;;5030494;28;20230;-83
2021/09/17 03:22:49;;;;;;;5.40;4.33;;;15.00;99.90;;;;;;5031363;28;20209;-83
2021/09/17 03:25:16;;;;;;;5.00;4.00;;;15.00;99.90;;;;;;5028350;28;20231;-83
2021/09/17 03:27:43;;;;;;;4.70;3.50;;;15.10;99.90;;;;;;5031095;28;20271;-83
2021/09/17 03:30:11;;;;;;;7.47;3.80;;;15.10;99.90;;;;;;5028350;28;20210;-83
2021/09/17 03:32:39;;;;;;;6.07;4.20;;;15.10;99.90;;;;;;5033900;28;20227;-84
2021/09/17 03:35:07;;;;;;;6.90;3.50;;;15.10;99.90;;;;;;5036979;28;20199;-84
2021/09/17 03:37:34;;;;;;;6.50;3.77;;;15.10;99.90;;;;;;5038090;28;20255;-84
2021/09/17 03:40:03;;;;;;;5.20;3.20;;;15.10;99.90;;;;;;5034493;28;20231;-83
2021/09/17 03:42:30;;;;;;;5.93;3.60;;;15.10;99.90;;;;;;5037642;28;20227;-83
2021/09/17 03:44:57;;;;;;;7.70;4.20;;;15.20;99.90;;;;;;5025700;28;20300;-83
2021/09/17 03:47:23;;;;;;;6.93;4.40;;;15.20;99.90;;;;;;5030072;28;20258;-84
2021/09/17 03:49:50;;;;;;;8.57;4.80;;;15.10;99.90;;;;;;5028196;28;20290;-82
2021/09/17 03:52:17;;;;;;;8.17;5.17;;;15.10;99.90;;;;;;5029091;28;20223;-84
2021/09/17 03:54:45;;;;;;;8.90;5.53;;;15.10;99.90;;;;;;5030066;28;20298;-83
2021/09/17 03:57:13;;;;;;;9.10;5.20;;;15.10;99.90;;;;;;5030024;28;20215;-85
2021/09/17 03:59:40;;;;;;;7.50;5.03;;;15.10;99.90;;;;;;5033806;28;20208;-83
2021/09/17 04:02:07;;;;;;;7.97;5.17;;;15.10;99.90;;;;;;5024826;28;20292;-83
2021/09/17 04:04:34;;;;;;;7.23;5.37;;;15.10;99.90;;;;;;5029694;28;20287;-83
2021/09/17 04:07:01;;;;;;;9.07;5.67;;;15.10;99.90;;;;;;5030772;28;20228;-83
2021/09/17 04:09:28;;;;;;;12.73;6.43;;;15.10;99.90;;;;;;5029752;28;20231;-84
2021/09/17 04:11:55;;;;;;;12.33;6.43;;;15.00;99.90;;;;;;5027113;28;20757;-83
2021/09/17 04:14:23;;;;;;;9.23;5.60;;;15.00;99.90;;;;;;5033748;28;20235;-84
2021/09/17 04:16:50;;;;;;;9.43;6.30;;;15.00;99.90;;;;;;5030858;28;20234;-84
2021/09/17 04:19:17;;;;;;;8.70;6.37;;;14.90;99.90;;;;;;5033816;28;20231;-84
2021/09/17 04:21:44;;;;;;;10.47;5.77;;;14.90;99.90;;;;;;5034442;28;20226;-84
2021/09/17 04:24:11;;;;;;;9.87;5.93;;;14.90;99.90;;;;;;5034252;28;20269;-83
2021/09/17 04:26:38;;;;;;;8.83;5.97;;;14.90;99.90;;;;;;5036000;28;20273;-83
2021/09/17 04:29:05;;;;;;;11.40;6.53;;;14.90;99.90;;;;;;5025223;28;20263;-84
2021/09/17 04:31:34;;;;;;;9.67;6.60;;;14.90;99.90;;;;;;5035848;28;20290;-84
2021/09/17 04:34:01;;;;;;;11.63;7.43;;;14.90;99.90;;;;;;5037191;28;20242;-83
2021/09/17 04:36:27;;;;;;;12.93;8.00;;;14.80;99.90;;;;;;5031541;28;20314;-84
2021/09/17 04:38:54;;;;;;;13.13;7.93;;;14.80;99.90;;;;;;5033936;28;20267;-83
2021/09/17 04:41:21;;;;;;;14.43;8.43;;;14.80;99.90;;;;;;5035684;28;20195;-83
2021/09/17 04:43:48;;;;;;;12.90;7.90;;;14.70;99.90;;;;;;5034307;28;20196;-83
2021/09/17 04:46:15;;;;;;;13.50;9.17;;;14.70;99.90;;;;;;5034625;28;20303;-84
2021/09/17 04:48:44;;;;;;;15.77;9.10;;;14.70;99.90;;;;;;5033078;28;20239;-84
2021/09/17 04:51:10;;;;;;;13.00;8.60;;;14.80;99.90;;;;;;5033481;28;20227;-83
2021/09/17 04:53:37;;;;;;;14.97;9.17;;;14.70;99.90;;;;;;5035446;28;20289;-84
2021/09/17 04:56:05;;;;;;;15.23;9.20;;;14.70;99.90;;;;;;5036985;28;20226;-84
2021/09/17 04:58:31;;;;;;;14.87;10.30;;;14.60;99.90;;;;;;5033363;28;20204;-84
2021/09/17 05:00:58;;;;;;;14.63;10.50;;;14.70;99.90;;;;;;5030289;28;20291;-84
2021/09/17 05:03:25;;;;;;;16.47;10.83;;;14.60;99.90;;;;;;5038440;28;20723;-84
2021/09/17 05:05:54;;;;;;;15.60;10.37;;;14.60;99.90;;;;;;5035954;28;20216;-83
2021/09/17 05:08:20;;;;;;;16.53;10.47;;;14.60;99.90;;;;;;5034619;28;20199;-84
2021/09/17 05:10:47;;;;;;;13.53;10.13;;;14.60;99.90;;;;;;5032081;28;20543;-84
2021/09/17 05:13:14;;;;;;;17.87;10.23;;;14.60;99.90;;;;;;5030547;28;20223;-84
2021/09/17 05:15:41;;;;;;;16.03;11.03;;;14.60;99.90;;;;;;5032373;28;20251;-85
2021/09/17 05:18:08;;;;;;;16.60;10.97;;;14.60;99.90;;;;;;5034689;28;20207;-83
2021/09/17 05:20:35;;;;;;;14.07;9.80;;;14.60;99.90;;;;;;5035676;28;20735;-83
2021/09/17 05:23:03;;;;;;;17.20;9.60;;;14.60;99.90;;;;;;5031402;28;20204;-83
2021/09/17 05:25:30;;;;;;;14.27;9.17;;;14.70;99.90;;;;;;5030608;28;20714;-83
2021/09/17 05:27:57;;;;;;;14.53;9.60;;;14.70;99.90;;;;;;5029916;28;20208;-83
2021/09/17 05:30:24;;;;;;;15.07;9.47;;;14.60;99.90;;;;;;5027761;28;20307;-83
2021/09/17 05:32:51;;;;;;;14.83;9.00;;;14.60;99.90;;;;;;5024317;28;20288;-83
2021/09/17 05:35:18;;;;;;;15.60;9.90;;;14.60;99.90;;;;;;5026984;28;20243;-83
2021/09/17 05:37:45;;;;;;;16.30;10.20;;;14.70;99.90;;;;;;5030345;28;20299;-83
2021/09/17 05:40:14;;;;;;;16.83;10.50;;;14.70;99.90;;;;;;5028649;28;20271;-83
2021/09/17 05:42:41;;;;;;;17.07;10.57;;;14.60;99.90;;;;;;5029208;28;20234;-83
2021/09/17 05:45:09;;;;;;;15.77;10.87;;;14.70;99.90;;;;;;5027450;28;20242;-83
2021/09/17 05:47:36;;;;;;;16.43;10.50;;;14.70;99.90;;;;;;5030691;28;20255;-82
2021/09/17 05:50:03;;;;;;;17.70;10.73;;;14.80;99.90;;;;;;5030903;28;20247;-83
2021/09/17 05:52:30;;;;;;;15.23;10.90;;;14.80;99.90;;;;;;5033447;28;20310;-83
2021/09/17 05:54:57;;;;;;;15.53;10.60;;;14.80;99.90;;;;;;5032247;28;20289;-84
2021/09/17 05:57:26;;;;;;;15.20;11.00;;;14.90;99.90;;;;;;5031881;28;20368;-85
2021/09/17 05:59:53;;;;;;;17.67;10.57;;;14.90;99.90;;;;;;5031975;28;20204;-83
2021/09/17 06:02:19;;;;;;;16.77;11.40;;;14.90;99.90;;;;;;5028135;28;20630;-83
2021/09/17 06:04:46;;;;;;;16.10;11.33;;;14.80;99.90;;;;;;5032923;28;20643;-83
2021/09/17 06:07:13;;;;;;;16.47;10.70;;;14.90;99.90;;;;;;5033394;28;20265;-83
2021/09/17 06:09:40;;;;;;;15.77;11.63;;;14.90;99.90;;;;;;5033800;28;20227;-83
2021/09/17 06:12:08;;;;;;;18.53;11.03;;;14.90;99.90;;;;;;5029267;28;20609;-83
2021/09/17 06:14:36;;;;;;;16.07;10.73;;;14.90;99.90;;;;;;5031624;28;20287;-83
2021/09/17 06:17:03;;;;;;;23.57;12.00;;;14.90;99.90;;;;;;5029225;28;20735;-83
2021/09/17 06:19:30;;;;;;;17.87;11.17;;;15.00;99.90;;;;;;5031511;28;20235;-83
2021/09/17 06:21:57;;;;;;;19.00;12.00;;;14.90;99.90;;;;;;5030966;28;20231;-83
2021/09/17 06:24:24;;;;;;;16.60;10.83;;;15.00;99.90;;;;;;5026972;28;20231;-83
2021/09/17 06:26:51;;;;;;;18.63;11.30;;;15.00;99.90;;;;;;5024535;28;20222;-83
2021/09/17 06:29:18;;;;;;;16.23;11.20;;;15.00;99.90;;;;;;5026342;28;20254;-83
2021/09/17 06:31:46;;;;;;;15.50;11.00;;;15.00;99.90;;;;;;5027852;28;20266;-83
2021/09/17 06:34:13;;;;;;;15.63;9.73;;;14.90;99.90;;;;;;5030987;28;20659;-83
2021/09/17 06:36:40;;;;;;;15.87;10.53;;;15.00;99.90;;;;;;5030380;28;20306;-83
2021/09/17 06:39:08;;;;;;;15.57;9.97;;;15.00;99.90;;;;;;5033250;28;20275;-83
2021/09/17 06:41:35;;;;;;;16.00;9.63;;;15.00;99.90;;;;;;5020772;28;20225;-83
2021/09/17 06:44:02;;;;;;;14.60;9.57;;;15.10;99.90;;;;;;5033545;28;20236;-83
2021/09/17 06:46:28;;;;;;;18.13;9.90;;;15.10;99.90;;;;;;5031306;28;20251;-83
2021/09/17 06:48:57;;;;;;;13.57;8.57;;;15.20;99.90;;;;;;5028694;28;20217;-83
2021/09/17 06:51:24;;;;;;;12.77;8.73;;;15.30;99.90;;;;;;5036600;28;20306;-83
2021/09/17 06:53:50;;;;;;;12.47;8.77;;;15.30;99.90;;;;;;5035734;28;20306;-82
2021/09/17 06:56:17;;;;;;;15.63;8.60;;;15.30;99.90;;;;;;5032873;28;20258;-82
2021/09/17 06:58:44;;;;;;;17.43;8.47;;;15.30;99.90;;;;;;5029481;28;20203;-83
2021/09/17 07:01:11;;;;;;;12.97;7.97;;;15.30;99.90;;;;;;5030148;28;20456;-83
2021/09/17 07:03:38;;;;;;;12.43;7.37;;;15.40;99.90;;;;;;5032524;28;20286;-83
2021/09/17 07:06:06;;;;;;;10.03;6.97;;;15.50;99.90;;;;;;5029472;28;20322;-83
2021/09/17 07:08:33;;;;;;;9.50;6.57;;;15.50;99.90;;;;;;5028864;28;20242;-83
2021/09/17 07:11:00;;;;;;;9.77;6.30;;;15.60;99.90;;;;;;5031004;28;20242;-84
2021/09/17 07:13:27;;;;;;;11.80;6.50;;;15.60;99.90;;;;;;5031371;28;20278;-84
2021/09/17 07:15:54;;;;;;;9.40;5.50;;;15.80;99.90;;;;;;5029539;28;20282;-83
2021/09/17 07:18:21;;;;;;;10.57;6.07;;;15.80;99.90;;;;;;5029254;28;20227;-83
2021/09/17 07:20:50;;;;;;;9.33;6.30;;;15.90;99.90;;;;;;5030148;28;20214;-83
2021/09/17 07:23:18;;;;;;;8.40;6.10;;;15.90;99.90;;;;;;5032277;28;20203;-83
2021/09/17 07:25:45;;;;;;;7.45;5.35;;;15.90;99.90;;;;;;5034862;28;20215;-83
2021/09/17 07:28:12;;;;;;;11.13;5.82;;;16.00;99.90;;;;;;5033700;28;20225;-83
2021/09/17 07:30:39;;;;;;;8.60;6.35;;;16.10;99.90;;;;;;5027755;28;20302;-83
2021/09/17 07:33:06;;;;;;;7.88;5.80;;;16.20;99.90;;;;;;5026400;28;20659;-84
2021/09/17 07:35:33;;;;;;;9.32;5.63;;;16.20;99.90;;;;;;5033662;28;20203;-83
2021/09/17 07:38:01;;;;;;;9.57;5.82;;;16.20;99.90;;;;;;5024953;28;20232;-83
2021/09/17 07:40:30;;;;;;;10.87;6.73;;;16.20;99.90;;;;;;5029765;28;20290;-83
2021/09/17 07:42:58;;;;;;;9.57;5.88;;;16.20;99.90;;;;;;5025952;28;20231;-83
2021/09/17 07:45:26;;;;;;;9.95;5.85;;;16.20;99.90;;;;;;5024922;28;20268;-83
2021/09/17 07:47:54;;;;;;;9.23;5.65;;;16.20;99.90;;;;;;5030780;28;20692;-82
2021/09/17 07:50:20;;;;;;;7.80;5.13;;;16.20;99.90;;;;;;5026905;28;20232;-83
2021/09/17 07:52:47;;;;;;;12.43;6.13;;;16.20;99.90;;;;;;5036473;28;20655;-83
2021/09/17 07:55:15;;;;;;;8.95;5.72;;;16.30;99.90;;;;;;5035690;28;20302;-83
2021/09/17 07:57:43;;;;;;;9.77;5.70;;;16.40;99.90;;;;;;5041666;28;20244;-83
2021/09/17 08:00:13;;;;;;;12.63;5.18;;;16.60;99.90;;;;;;5028734;28;20642;-83
2021/09/17 08:02:40;;;;;;;7.40;4.35;;;16.80;99.90;;;;;;5021273;28;20200;-84
2021/09/17 08:05:09;;;;;;;8.95;5.60;;;16.80;99.90;;;;;;5014043;28;20207;-84
2021/09/17 08:07:36;;;;;;;7.70;5.30;;;16.80;99.90;;;;;;5024298;28;20730;-83
2021/09/17 08:10:04;;;;;;;8.80;4.40;;;16.60;99.90;;;;;;5025315;28;20778;-84
2021/09/17 08:12:31;;;;;;;11.30;6.68;;;16.50;99.90;;;;;;5027213;28;20208;-84
2021/09/17 08:15:00;;;;;;;8.07;3.83;;;16.50;99.90;;;;;;5025082;28;20311;-84
2021/09/17 08:17:27;;;;;;;7.35;4.25;;;16.60;99.90;;;;;;5026885;28;20251;-84
2021/09/17 08:19:54;;;;;;;7.75;3.60;;;16.50;99.90;;;;;;5028373;28;20268;-83
2021/09/17 08:22:20;;;;;;;5.90;3.20;;;16.50;99.90;;;;;;5020284;28;20672;-83
2021/09/17 08:24:47;;;;;;;4.38;2.50;;;16.60;99.90;;;;;;5031245;28;20199;-84
2021/09/17 08:27:14;;;;;;;3.90;2.25;;;16.70;99.90;;;;;;5029372;28;20266;-83
2021/09/17 08:29:41;;;;;;;6.50;2.50;;;16.70;99.90;;;;;;5023875;28;20289;-84
2021/09/17 08:32:10;;;;;;;3.78;1.90;;;16.80;99.90;;;;;;5026169;28;20245;-84
2021/09/17 08:34:37;;;;;;;5.68;1.90;;;16.90;99.90;;;;;;5025394;28;20306;-83
2021/09/17 08:37:07;;;;;;;2.58;1.60;;;16.90;99.90;;;;;;5027434;28;20314;-83
2021/09/17 08:39:36;;;;;;;5.22;1.40;;;17.10;99.90;;;;;;5024221;28;20203;-83
2021/09/17 08:42:05;;;;;;;2.90;1.33;;;17.00;99.90;;;;;;5023543;28;20231;-84
2021/09/17 08:44:32;;;;;;;3.03;1.40;;;17.20;99.90;;;;;;5029648;28;20428;-83
2021/09/17 08:46:59;;;;;;;1.95;1.48;;;17.30;99.90;;;;;;5027194;28;20594;-83
2021/09/17 08:49:28;;;;;;;3.40;1.60;;;17.40;99.90;;;;;;5025994;28;20239;-85
2021/09/17 08:51:55;;;;;;;3.90;1.40;;;17.60;99.90;;;;;;5025352;28;20279;-84
2021/09/17 08:54:22;;;;;;;2.78;1.40;;;17.70;99.90;;;;;;5022787;28;20250;-85
2021/09/17 08:56:49;;;;;;;1.33;1.20;;;17.70;99.90;;;;;;5025617;28;20322;-83
2021/09/17 08:59:16;;;;;;;1.23;0.80;;;17.80;99.90;;;;;;5027750;28;20267;-84
2021/09/17 09:01:43;;;;;;;0.80;0.70;;;18.00;99.90;;;;;;5027406;28;20228;-83
2021/09/17 09:04:10;;;;;;;1.13;0.90;;;18.20;99.90;;;;;;5023479;28;20287;-84
2021/09/17 09:06:41;;;;;;;3.50;0.93;;;18.40;99.90;;;;;;5033411;28;20227;-84
2021/09/17 09:09:16;;;;;;;1.10;0.88;;;18.30;99.90;;;;;;5023849;28;20216;-84
2021/09/17 09:11:47;;;;;;;2.25;0.82;;;18.30;99.90;;;;;;5027556;28;20210;-84
2021/09/17 09:14:15;;;;;;;2.55;1.02;;;18.70;99.90;;;;;;5027542;28;20218;-84
2021/09/17 09:16:45;;;;;;;1.48;0.88;;;19.10;99.90;;;;;;5028514;28;20211;-81
2021/09/17 09:19:37;;;;;;;1.90;0.80;;;19.10;99.90;;;;;;5023208;28;20310;-84
2021/09/17 09:22:13;;;;;;;3.15;1.30;;;18.60;99.90;;;;;;5010986;28;20208;-84
2021/09/17 09:24:42;;;;;;;6.63;3.75;;;18.70;99.90;;;;;;5017907;28;20203;-83
2021/09/17 09:27:13;;;;;;;3.63;1.60;;;19.20;99.90;;;;;;5016839;28;20228;-83
2021/09/17 09:29:41;;;;;;;2.95;1.48;;;19.10;99.90;;;;;;5024859;28;20306;-83
2021/09/17 09:32:12;;;;;;;3.20;1.42;;;18.90;99.90;;;;;;5027155;28;20235;-83
2021/09/17 09:34:51;;;;;;;1.67;1.20;;;18.50;99.90;;;;;;5025982;28;20812;-82
2021/09/17 09:37:20;;;;;;;2.15;1.33;;;19.40;99.90;;;;;;5031904;28;20277;-83
2021/09/17 09:39:58;;;;;;;2.42;1.10;;;19.60;99.90;;;;;;5030307;28;20687;-84
2021/09/17 09:42:36;;;;;;;2.97;1.30;;;19.30;99.90;;;;;;5022926;28;20281;-83
2021/09/17 09:45:22;;;;;;;3.63;1.70;;;19.40;99.90;;;;;;5020479;28;20330;-84
2021/09/17 09:47:51;;;;;;;1.30;1.20;;;19.10;99.90;;;;;;5023086;28;20196;-83
2021/09/17 09:50:22;;;;;;;2.22;1.38;;;19.30;99.90;;;;;;5030176;28;20272;-83
2021/09/17 09:52:50;;;;;;;2.55;1.45;;;19.30;99.90;;;;;;5025360;28;20219;-83
2021/09/17 09:55:17;;;;;;;1.75;0.90;;;19.10;99.90;;;;;;5024058;28;20322;-83
2021/09/17 09:57:44;;;;;;;2.30;1.20;;;19.40;99.90;;;;;;5031977;28;20305;-84
2021/09/17 10:00:13;;;;;;;4.88;0.95;;;20.10;99.90;;;;;;5025605;28;20435;-83
2021/09/17 10:02:42;;;;;;;1.95;1.15;;;20.40;99.90;;;;;;5023403;28;20243;-84
2021/09/17 10:05:11;;;;;;;0.98;0.80;;;20.50;99.90;;;;;;5024254;28;20305;-83
2021/09/17 10:07:40;;;;;;;4.90;3.58;;;20.50;99.90;;;;;;5028086;28;20228;-84
2021/09/17 10:10:11;;;;;;;2.33;0.95;;;20.20;99.90;;;;;;5028126;28;20303;-85
2021/09/17 10:12:39;;;;;;;2.33;0.80;;;19.80;99.90;;;;;;5029489;28;20615;-85
2021/09/17 10:15:08;;;;;;;1.02;0.80;;;19.40;99.90;;;;;;5025094;28;20237;-84
2021/09/17 10:17:38;;;;;;;2.13;1.13;;;19.30;99.90;;;;;;5031368;28;20259;-85
2021/09/17 10:20:08;;;;;;;1.85;1.10;;;19.20;99.90;;;;;;5029055;28;20676;-85
2021/09/17 10:22:37;;;;;;;2.50;1.25;;;19.40;99.90;;;;;;5031539;28;20251;-85
2021/09/17 10:25:12;;;;;;;1.75;1.40;;;19.40;99.90;;;;;;5026526;28;20519;-84
2021/09/17 10:27:41;;;;;;;2.78;1.23;;;19.50;99.90;;;;;;5021426;28;20223;-84
2021/09/17 10:30:11;;;;;;;2.38;1.10;;;19.60;99.90;;;;;;5022488;28;20651;-85
2021/09/17 10:32:47;;;;;;;1.55;0.80;;;19.80;99.90;;;;;;5021866;28;20261;-85
2021/09/17 10:35:19;;;;;;;3.40;1.35;;;19.90;99.90;;;;;;5026157;28;20221;-84
2021/09/17 10:38:15;;;;;;;2.25;0.80;;;20.20;99.90;;;;;;5024629;28;20338;-83
2021/09/17 10:40:54;;;;;;;0.90;0.90;;;19.80;99.90;;;;;;5025367;28;20207;-84
2021/09/17 10:43:33;;;;;;;1.20;0.82;;;19.40;99.90;;;;;;5023973;28;20659;-84
2021/09/17 10:46:01;;;;;;;2.47;0.95;;;19.20;99.90;;;;;;5025845;28;20258;-84
2021/09/17 10:48:30;;;;;;;0.98;0.85;;;19.50;99.90;;;;;;5023400;28;20230;-83
2021/09/17 10:51:03;;;;;;;3.22;0.90;;;19.40;99.90;;;;;;5024676;28;20837;-84
2021/09/17 10:54:05;;;;;;;2.35;1.10;;;19.30;99.90;;;;;;5028277;28;20528;-83
2021/09/17 10:57:07;;;;;;;1.85;0.90;;;19.60;99.90;;;;;;5024671;28;20230;-83
2021/09/17 10:59:45;;;;;;;3.78;1.23;;;19.80;99.90;;;;;;5023919;28;20250;-83
2021/09/17 11:02:13;;;;;;;1.23;0.88;;;19.90;99.90;;;;;;5019108;28;20236;-85
2021/09/17 11:04:42;;;;;;;1.38;0.98;;;19.80;99.90;;;;;;5026804;28;20310;-86
2021/09/17 11:07:36;;;;;;;1.70;1.00;;;19.50;99.90;;;;;;5026913;28;20735;-84
2021/09/17 11:10:22;;;;;;;3.30;1.13;;;19.40;99.90;;;;;;4993471;28;20581;-84
2021/09/17 11:12:50;;;;;;;4.47;1.70;;;19.70;99.90;;;;;;5030009;28;20292;-84
2021/09/17 11:15:19;;;;;;;4.68;1.48;;;19.50;99.90;;;;;;5025093;28;20753;-83
2021/09/17 11:17:48;;;;;;;4.00;1.40;;;19.40;99.90;;;;;;5028401;28;20219;-84
2021/09/17 11:20:19;;;;;;;2.30;1.80;;;19.50;99.90;;;;;;5025559;28;20196;-83
2021/09/17 11:22:58;;;;;;;2.67;2.28;;;19.50;99.90;;;;;;5020742;28;20240;-84
2021/09/17 11:25:32;;;;;;;4.00;1.77;;;19.40;99.90;;;;;;5023896;28;20203;-83
2021/09/17 11:28:01;;;;;;;2.28;1.73;;;19.10;99.90;;;;;;5024294;28;20239;-83
2021/09/17 11:30:30;;;;;;;3.00;1.70;;;18.90;99.90;;;;;;5027980;28;20207;-84
2021/09/17 11:32:57;;;;;;;1.75;1.58;;;18.70;99.90;;;;;;5029957;28;20627;-85
2021/09/17 11:35:24;;;;;;;2.88;1.40;;;18.80;99.90;;;;;;5026268;28;20608;-85
2021/09/17 11:37:54;;;;;;;3.67;1.77;;;18.70;99.90;;;;;;5028121;28;20221;-85
2021/09/17 11:40:22;;;;;;;4.07;1.60;;;18.90;99.90;;;;;;5031436;28;20684;-84
2021/09/17 11:42:49;;;;;;;3.22;1.85;;;18.80;99.90;;;;;;5033860;28;20207;-84
2021/09/17 11:45:19;;;;;;;4.50;1.80;;;18.70;99.90;;;;;;5018121;28;20652;-84
2021/09/17 11:47:48;;;;;;;3.58;1.55;;;18.70;99.90;;;;;;5027643;28;20212;-84
2021/09/17 11:50:16;;;;;;;1.63;1.52;;;18.60;99.90;;;;;;5028191;28;20296;-84
2021/09/17 11:52:45;;;;;;;2.33;1.85;;;18.60;99.90;;;;;;5032705;28;20222;-84
2021/09/17 11:55:15;;;;;;;2.45;1.60;;;18.60;99.90;;;;;;5028628;28;20225;-84
2021/09/17 11:57:44;;;;;;;4.65;1.77;;;18.60;99.90;;;;;;5027327;28;20235;-84
2021/09/17 12:00:13;;;;;;;2.05;1.40;;;18.60;99.90;;;;;;5031593;28;20290;-84
2021/09/17 12:02:42;;;;;;;2.58;1.77;;;18.60;99.90;;;;;;5025238;28;20741;-84
2021/09/17 12:05:15;;;;;;;3.88;1.73;;;18.50;99.90;;;;;;5027107;28;20230;-84
2021/09/17 12:07:43;;;;;;;3.67;2.35;;;18.50;99.90;;;;;;5029404;28;20207;-84
2021/09/17 12:10:12;;;;;;;2.08;1.58;;;18.70;99.90;;;;;;5026446;28;20338;-84
2021/09/17 12:12:42;;;;;;;2.00;1.75;;;18.80;99.90;;;;;;5030249;28;20212;-83
2021/09/17 12:15:10;;;;;;;4.22;1.90;;;18.80;99.90;;;;;;5031807;28;20424;-84
2021/09/17 12:17:55;;;;;;;3.42;1.67;;;18.70;99.90;;;;;;5027956;28;20219;-84
2021/09/17 12:20:22;;;;;;;4.10;1.50;;;18.90;99.90;;;;;;5027505;28;20246;-84
2021/09/17 12:22:58;;;;;;;2.05;1.73;;;18.80;99.90;;;;;;5032025;28;20669;-84
2021/09/17 12:25:31;;;;;;;3.47;2.05;;;18.70;99.90;;;;;;5029250;28;20230;-84
2021/09/17 12:28:01;;;;;;;2.83;1.67;;;18.60;99.90;;;;;;5027576;28;20234;-84
2021/09/17 12:30:31;;;;;;;3.42;1.92;;;18.50;99.90;;;;;;5024004;28;20243;-84
2021/09/17 12:33:11;;;;;;;4.00;1.77;;;18.60;99.90;;;;;;5026290;28;20290;-84
2021/09/17 12:35:40;;;;;;;1.70;1.58;;;18.50;99.90;;;;;;5029419;28;20314;-84
2021/09/17 12:38:08;;;;;;;2.97;2.10;;;18.60;99.90;;;;;;5017069;28;20207;-84
2021/09/17 12:40:38;;;;;;;3.53;1.90;;;18.70;99.90;;;;;;5019840;28;20212;-84
2021/09/17 12:43:07;;;;;;;2.33;2.10;;;18.70;99.90;;;;;;5022348;28;20715;-84
2021/09/17 12:45:35;;;;;;;3.80;2.13;;;18.60;99.90;;;;;;5023155;28;20211;-84
2021/09/17 12:48:05;;;;;;;4.80;2.45;;;18.50;99.90;;;;;;5024692;28;20270;-84
2021/09/17 12:50:38;;;;;;;2.97;2.67;;;18.60;99.90;;;;;;5025225;28;20961;-84